sim
Sign-in with your pilot id or email,
or register
Callsign
Passwort

Schedule Details

Flight Number: DLH2306 (2)
Departure: Munich Airport (EDDM) at 13:30
Arrival: Amsterdam Schiphol Airport (EHAM) at 15:05
Route: Lufthansa Passenger Schedule. Enter filed route here before submitting Pirep.

Weather Information
Getting current METAR information for EDDM 231020Z 26010KT 9000 -SHRA FEW007 FEW015TCU BKN032 15/14 Q1010 NOSIG
Getting current METAR information for EHAM 231025Z 18013KT 140V220 9999 FEW020 20/15 Q1002 NOSIG

Schedule Frequency

Route Map